Time;durP1;ratioP1;P1;durP2;ratioP2;P2;SDS_P1;SDS_P2;PMS_P1;PMS_P2;Temp;Humidity;BMP_temperature;BMP_pressure;BME280_temperature;BME280_humidity;BME280_pressure;Samples;Min_cycle;Max_cycle;Signal;HPM_P1;HPM_P2
2022/12/17 13:05:54;;;;;;;49.70;24.30;;;0.20;99.90;;;;;;4951782;29;20557;-75
2022/12/17 13:08:22;;;;;;;55.53;24.30;;;0.10;99.90;;;;;;4952273;29;20903;-75
2022/12/17 13:10:51;;;;;;;50.47;24.20;;;0.00;99.90;;;;;;4952486;28;20481;-75
2022/12/17 13:13:30;;;;;;;45.90;23.43;;;0.00;99.90;;;;;;4952434;29;20453;-75
2022/12/17 13:16:02;;;;;;;49.13;25.07;;;-0.10;99.90;;;;;;4951914;29;20447;-75
2022/12/17 13:18:32;;;;;;;47.33;25.40;;;-0.20;99.90;;;;;;4952328;29;20434;-75
2022/12/17 13:21:02;;;;;;;45.30;24.97;;;-0.10;99.90;;;;;;4951981;28;20492;-75
2022/12/17 13:23:33;;;;;;;50.33;24.03;;;-0.10;99.90;;;;;;4951457;29;20457;-79
2022/12/17 13:26:21;;;;;;;54.80;24.77;;;-0.20;99.90;;;;;;4950725;29;20501;-76
2022/12/17 13:28:58;;;;;;;44.97;25.07;;;-0.20;99.90;;;;;;4950227;29;20465;-77
2022/12/17 13:31:27;;;;;;;49.70;25.50;;;-0.20;99.90;;;;;;4949945;28;20853;-74
2022/12/17 13:34:04;;;;;;;53.00;26.37;;;-0.20;99.90;;;;;;4949600;29;20464;-75
2022/12/17 13:36:42;;;;;;;55.60;26.67;;;-0.30;99.90;;;;;;4949059;29;20802;-74
2022/12/17 13:39:23;;;;;;;49.57;24.70;;;-0.30;99.90;;;;;;4949779;29;20463;-74
2022/12/17 13:41:54;;;;;;;54.93;25.67;;;-0.20;99.90;;;;;;4949529;28;20473;-75
2022/12/17 13:44:24;;;;;;;49.10;25.07;;;-0.20;99.90;;;;;;4949395;29;20458;-75
2022/12/17 13:46:52;;;;;;;51.87;25.97;;;-0.30;99.90;;;;;;4949106;29;20461;-76
2022/12/17 13:49:21;;;;;;;53.23;25.40;;;-0.30;99.90;;;;;;4949594;29;20453;-76
2022/12/17 13:52:00;;;;;;;48.90;24.83;;;-0.30;99.90;;;;;;4949384;28;21028;-75
2022/12/17 13:54:27;;;;;;;47.27;23.90;;;-0.20;99.90;;;;;;4949382;29;20449;-75
2022/12/17 13:56:54;;;;;;;52.70;25.70;;;-0.20;99.90;;;;;;4948214;29;20456;-72
2022/12/17 13:59:24;;;;;;;49.97;24.00;;;-0.30;99.90;;;;;;4949374;29;20459;-74
2022/12/17 14:01:52;;;;;;;53.03;25.73;;;-0.30;99.90;;;;;;4949766;28;20493;-76
2022/12/17 14:04:25;;;;;;;47.23;26.33;;;-0.40;99.90;;;;;;4949311;28;21334;-76
2022/12/17 14:06:55;;;;;;;54.90;26.30;;;-0.50;99.90;;;;;;4949104;29;20456;-72
2022/12/17 14:09:28;;;;;;;56.90;27.57;;;-0.50;99.90;;;;;;4949715;29;20445;-72
2022/12/17 14:14:42;;;;;;;49.33;23.27;;;-0.40;99.90;;;;;;4950641;29;20424;-72
2022/12/17 14:17:17;;;;;;;49.90;25.30;;;-0.40;99.90;;;;;;4949757;29;20461;-73
2022/12/17 14:19:44;;;;;;;47.03;23.90;;;-0.40;99.90;;;;;;4951164;29;20512;-73
2022/12/17 14:22:19;;;;;;;44.73;23.53;;;-0.40;99.90;;;;;;4956109;28;20485;-72
2022/12/17 14:24:46;;;;;;;54.77;27.43;;;-0.30;99.90;;;;;;4959396;29;20560;-73
2022/12/17 14:27:22;;;;;;;55.33;24.50;;;-0.30;99.90;;;;;;4958004;29;20463;-74
2022/12/17 14:29:49;;;;;;;50.43;22.67;;;-0.30;99.90;;;;;;4955178;29;20460;-74
2022/12/17 14:32:24;;;;;;;44.53;23.30;;;-0.30;99.90;;;;;;4955133;28;20492;-76
2022/12/17 14:34:51;;;;;;;48.23;24.00;;;-0.30;99.90;;;;;;4951658;29;20449;-73
2022/12/17 14:37:24;;;;;;;52.57;25.97;;;-0.30;99.90;;;;;;4949191;29;20461;-73
2022/12/17 14:39:55;;;;;;;51.93;25.13;;;-0.40;99.90;;;;;;4948395;29;21000;-74
2022/12/17 14:42:28;;;;;;;51.80;26.90;;;-0.40;99.90;;;;;;4947614;28;20523;-73
2022/12/17 14:44:57;;;;;;;49.77;24.77;;;-0.40;99.90;;;;;;4948761;29;20489;-73
2022/12/17 14:47:25;;;;;;;54.07;26.37;;;-0.40;99.90;;;;;;4948206;29;20469;-74
2022/12/17 14:49:56;;;;;;;45.77;23.20;;;-0.50;99.90;;;;;;4949099;29;20461;-74
2022/12/17 14:52:32;;;;;;;49.27;24.67;;;-0.70;99.90;;;;;;4949037;28;20466;-74
2022/12/17 14:54:59;;;;;;;52.57;24.30;;;-0.80;99.90;;;;;;4948844;29;20548;-75
2022/12/17 14:57:26;;;;;;;56.57;24.73;;;-0.90;99.90;;;;;;4948090;29;20806;-74
2022/12/17 14:59:53;;;;;;;49.33;24.93;;;-0.90;99.90;;;;;;4949122;29;20545;-74
2022/12/17 15:02:25;;;;;;;48.20;22.70;;;-0.90;99.90;;;;;;4948448;28;20492;-75
2022/12/17 15:04:53;;;;;;;55.00;25.50;;;-0.80;99.90;;;;;;4948527;29;20497;-74
2022/12/17 15:07:28;;;;;;;53.93;25.50;;;-0.80;99.90;;;;;;4948064;29;20457;-75
2022/12/17 15:09:55;;;;;;;52.40;25.20;;;-0.80;99.90;;;;;;4948666;29;20465;-74
2022/12/17 15:12:24;;;;;;;56.73;29.20;;;-0.80;99.90;;;;;;4948791;28;20480;-74
2022/12/17 15:14:51;;;;;;;79.93;31.90;;;-0.90;99.90;;;;;;4948840;29;20457;-74
2022/12/17 15:17:18;;;;;;;61.43;29.27;;;-1.00;99.90;;;;;;4947015;28;20460;-75
2022/12/17 15:19:45;;;;;;;63.50;30.63;;;-1.00;99.90;;;;;;4948629;29;20468;-75
2022/12/17 15:22:16;;;;;;;60.77;28.77;;;-1.10;99.90;;;;;;4948347;28;20473;-74
2022/12/17 15:24:44;;;;;;;54.47;28.90;;;-1.20;99.90;;;;;;4948723;29;20442;-74
2022/12/17 15:27:13;;;;;;;56.90;28.93;;;-1.20;99.90;;;;;;4947835;29;21063;-75
2022/12/17 15:29:40;;;;;;;59.70;29.27;;;-1.20;99.90;;;;;;4948430;29;20461;-74
2022/12/17 15:32:07;;;;;;;63.27;29.53;;;-1.20;99.90;;;;;;4948040;28;20476;-74
2022/12/17 15:34:34;;;;;;;60.90;30.00;;;-1.30;99.90;;;;;;4948392;29;20464;-76
2022/12/17 15:37:01;;;;;;;66.77;31.23;;;-1.30;99.90;;;;;;4947448;29;20454;-75
2022/12/17 15:39:28;;;;;;;83.77;35.23;;;-1.30;99.90;;;;;;4948318;29;20820;-74
2022/12/17 15:44:40;;;;;;;68.23;31.37;;;-1.40;99.90;;;;;;4948253;29;20425;-74
2022/12/17 15:47:07;;;;;;;65.87;31.07;;;-1.50;99.90;;;;;;4947284;29;20508;-75
2022/12/17 15:49:34;;;;;;;62.67;30.63;;;-1.50;99.90;;;;;;4948052;29;20533;-75
2022/12/17 15:52:01;;;;;;;57.17;30.43;;;-1.60;99.90;;;;;;4948059;28;20477;-75
2022/12/17 15:54:27;;;;;;;59.97;29.80;;;-1.60;99.90;;;;;;4948215;29;20461;-75
2022/12/17 15:56:57;;;;;;;60.03;28.23;;;-1.60;99.90;;;;;;4947116;29;20495;-75
2022/12/17 15:59:23;;;;;;;64.50;30.53;;;-1.70;99.90;;;;;;4947980;29;20485;-75
2022/12/17 16:01:50;;;;;;;58.27;28.00;;;-1.70;99.90;;;;;;4945713;28;20928;-73
2022/12/17 16:04:17;;;;;;;53.00;26.97;;;-1.80;99.90;;;;;;4948035;29;20453;-73
2022/12/17 16:06:44;;;;;;;63.43;30.47;;;-1.80;99.90;;;;;;4947513;29;20504;-73
2022/12/17 16:09:11;;;;;;;61.43;32.23;;;-1.80;99.90;;;;;;4947688;29;21295;-72
2022/12/17 16:11:37;;;;;;;59.23;30.13;;;-1.80;99.90;;;;;;4947774;28;20488;-73
2022/12/17 16:14:06;;;;;;;66.20;32.67;;;-1.80;99.90;;;;;;4947923;29;20462;-73
2022/12/17 16:16:32;;;;;;;67.40;33.87;;;-1.80;99.90;;;;;;4946423;29;21005;-73
2022/12/17 16:19:00;;;;;;;72.77;33.30;;;-1.80;99.90;;;;;;4947458;29;20807;-73
2022/12/17 16:21:28;;;;;;;58.83;30.07;;;-1.90;99.90;;;;;;4947574;28;20481;-73
2022/12/17 16:23:55;;;;;;;59.20;29.10;;;-1.90;99.90;;;;;;4947870;29;20457;-73
2022/12/17 16:26:21;;;;;;;60.77;30.83;;;-1.90;99.90;;;;;;4946991;29;20503;-73
2022/12/17 16:28:48;;;;;;;56.13;28.50;;;-1.90;99.90;;;;;;4949215;28;20461;-73
2022/12/17 16:31:16;;;;;;;60.00;29.93;;;-1.90;99.90;;;;;;4951532;28;20481;-73
2022/12/17 16:33:46;;;;;;;67.23;30.73;;;-2.00;99.90;;;;;;4951522;29;20445;-73
2022/12/17 16:36:15;;;;;;;68.20;30.83;;;-2.10;99.90;;;;;;4950419;29;20460;-73
2022/12/17 16:38:46;;;;;;;69.00;32.23;;;-2.10;99.90;;;;;;4950983;29;20456;-73
2022/12/17 16:41:14;;;;;;;62.33;31.20;;;-2.20;99.90;;;;;;4951019;28;20880;-73
2022/12/17 16:43:41;;;;;;;68.00;33.00;;;-2.20;99.90;;;;;;4951410;29;20480;-73
2022/12/17 16:46:26;;;;;;;60.53;30.43;;;-2.30;99.90;;;;;;4950602;29;20504;-73
2022/12/17 16:48:53;;;;;;;64.73;32.33;;;-2.30;99.90;;;;;;4952759;28;20467;-76
2022/12/17 16:51:22;;;;;;;59.20;30.70;;;-2.30;99.90;;;;;;4970611;28;20476;-73
2022/12/17 16:53:49;;;;;;;66.60;33.07;;;-2.40;99.90;;;;;;4971018;28;20464;-73
2022/12/17 16:56:17;;;;;;;66.93;30.27;;;-2.40;99.90;;;;;;4969250;28;20960;-73
2022/12/17 16:58:44;;;;;;;74.40;34.27;;;-2.50;99.90;;;;;;4970181;28;20824;-73
2022/12/17 17:01:11;;;;;;;73.93;34.20;;;-2.50;99.90;;;;;;4970081;28;20484;-73
2022/12/17 17:03:42;;;;;;;77.17;36.53;;;-2.50;99.90;;;;;;4969820;28;20448;-73
2022/12/17 17:06:10;;;;;;;78.10;37.87;;;-2.50;99.90;;;;;;4969520;28;20495;-73
2022/12/17 17:08:38;;;;;;;75.70;38.33;;;-2.50;99.90;;;;;;4969594;28;20463;-73
2022/12/17 17:11:09;;;;;;;80.50;37.03;;;-2.50;99.90;;;;;;4969864;28;21023;-73
2022/12/17 17:13:37;;;;;;;70.70;36.27;;;-2.60;99.90;;;;;;4969514;28;20453;-73
2022/12/17 17:16:04;;;;;;;71.67;33.80;;;-2.60;99.90;;;;;;4969271;28;20467;-73
2022/12/17 17:18:32;;;;;;;67.07;32.87;;;-2.70;99.90;;;;;;4969737;28;20452;-73
2022/12/17 17:21:15;;;;;;;73.40;36.37;;;-2.70;99.90;;;;;;4969337;28;20483;-73
2022/12/17 17:23:42;;;;;;;64.37;33.37;;;-2.80;99.90;;;;;;4969734;28;20468;-73
2022/12/17 17:26:09;;;;;;;69.00;35.23;;;-2.80;99.90;;;;;;4969127;28;20500;-73
2022/12/17 17:28:36;;;;;;;65.93;33.97;;;-2.90;99.90;;;;;;4969519;28;20540;-73
2022/12/17 17:31:05;;;;;;;60.23;30.40;;;-2.90;99.90;;;;;;4969407;28;20476;-73
2022/12/17 17:33:33;;;;;;;67.70;33.83;;;-3.00;99.90;;;;;;4969274;28;20460;-73
2022/12/17 17:36:04;;;;;;;75.97;33.40;;;-3.00;99.90;;;;;;4969247;28;20452;-73
2022/12/17 17:38:33;;;;;;;76.77;34.20;;;-3.10;99.90;;;;;;4969345;28;20460;-74
2022/12/17 17:41:00;;;;;;;68.80;34.67;;;-3.10;99.90;;;;;;4968157;28;20508;-73
2022/12/17 17:43:27;;;;;;;65.50;33.90;;;-3.10;99.90;;;;;;4969551;28;20457;-73
2022/12/17 17:45:55;;;;;;;64.67;33.67;;;-3.20;99.90;;;;;;4968641;28;20865;-73
2022/12/17 17:48:22;;;;;;;66.40;32.73;;;-3.20;99.90;;;;;;4968731;28;21055;-74
2022/12/17 17:50:58;;;;;;;62.70;33.73;;;-3.30;99.90;;;;;;4967768;28;20472;-73
2022/12/17 17:53:25;;;;;;;62.20;31.50;;;-3.30;99.90;;;;;;4968635;28;20433;-72
2022/12/17 17:55:53;;;;;;;66.60;32.90;;;-3.30;99.90;;;;;;4967459;28;20455;-73
2022/12/17 17:58:20;;;;;;;75.23;35.70;;;-3.30;99.90;;;;;;4967741;28;20452;-73
2022/12/17 18:00:47;;;;;;;59.70;30.33;;;-3.30;99.90;;;;;;4967768;28;20486;-74
2022/12/17 18:03:14;;;;;;;63.67;28.87;;;-3.30;99.90;;;;;;4968157;28;20437;-73
2022/12/17 18:05:42;;;;;;;62.37;30.97;;;-3.40;99.90;;;;;;4967792;28;20970;-73
2022/12/17 18:08:09;;;;;;;76.33;33.63;;;-3.40;99.90;;;;;;4967072;28;20464;-72
2022/12/17 18:10:36;;;;;;;69.07;32.43;;;-3.40;99.90;;;;;;4967821;28;20480;-73
2022/12/17 18:15:48;;;;;;;62.07;29.77;;;-3.50;99.90;;;;;;4967249;28;20432;-72
2022/12/17 18:18:15;;;;;;;71.53;34.13;;;-3.50;99.90;;;;;;4967151;28;20462;-73
2022/12/17 18:20:42;;;;;;;79.77;37.00;;;-3.60;99.90;;;;;;4967900;28;20499;-73
2022/12/17 18:23:09;;;;;;;122.67;49.00;;;-3.70;99.90;;;;;;4967529;28;20953;-72
2022/12/17 18:25:36;;;;;;;116.17;47.90;;;-3.70;99.90;;;;;;4966995;28;20460;-73
2022/12/17 18:28:07;;;;;;;109.27;45.97;;;-3.70;99.90;;;;;;4966580;28;20460;-73
2022/12/17 18:30:37;;;;;;;114.70;46.83;;;-3.80;99.90;;;;;;4967706;28;20515;-73
2022/12/17 18:33:04;;;;;;;102.90;44.20;;;-3.80;99.90;;;;;;4967382;28;20460;-73
2022/12/17 18:35:30;;;;;;;94.83;41.90;;;-3.80;99.90;;;;;;4967851;28;20457;-72
2022/12/17 18:37:57;;;;;;;90.53;37.97;;;-3.80;99.90;;;;;;4966564;28;20449;-72
2022/12/17 18:40:24;;;;;;;86.63;41.50;;;-3.90;99.90;;;;;;4967145;28;20486;-73
2022/12/17 18:45:37;;;;;;;81.07;36.33;;;-3.90;99.90;;;;;;4967116;28;20443;-72
2022/12/17 18:48:04;;;;;;;80.23;38.67;;;-3.90;99.90;;;;;;4966691;28;20527;-73
2022/12/17 18:50:30;;;;;;;84.50;39.23;;;-3.90;99.90;;;;;;4966707;28;20840;-73
2022/12/17 18:52:57;;;;;;;73.90;38.30;;;-3.90;99.90;;;;;;4966789;28;20453;-74
2022/12/17 18:55:24;;;;;;;80.03;35.80;;;-3.90;99.90;;;;;;4966869;28;20483;-74
2022/12/17 18:57:51;;;;;;;78.73;39.50;;;-3.90;99.90;;;;;;4966322;28;20467;-74
2022/12/17 19:00:18;;;;;;;87.10;39.63;;;-3.90;99.90;;;;;;4966723;28;20543;-74
2022/12/17 19:02:46;;;;;;;92.27;41.13;;;-4.00;99.90;;;;;;4966965;28;20464;-74
2022/12/17 19:05:13;;;;;;;81.27;41.50;;;-4.00;99.90;;;;;;4966956;28;20460;-74
2022/12/17 19:07:40;;;;;;;81.63;40.13;;;-4.10;99.90;;;;;;4966052;28;20507;-73
2022/12/17 19:10:07;;;;;;;84.20;38.60;;;-4.10;99.90;;;;;;4966944;28;20457;-73
2022/12/17 19:12:34;;;;;;;74.27;34.47;;;-4.20;99.90;;;;;;4967400;28;20477;-72
2022/12/17 19:15:01;;;;;;;63.00;31.43;;;-4.20;99.90;;;;;;4967392;28;20485;-73
2022/12/17 19:17:28;;;;;;;69.50;30.50;;;-4.30;99.90;;;;;;4966695;28;20806;-73
2022/12/17 19:19:56;;;;;;;73.40;31.50;;;-4.30;99.90;;;;;;4967472;28;20457;-73
2022/12/17 19:22:23;;;;;;;68.57;31.83;;;-4.30;99.90;;;;;;4967767;28;20488;-73
2022/12/17 19:24:49;;;;;;;57.60;31.17;;;-4.30;99.90;;;;;;4967587;28;20968;-73
2022/12/17 19:27:16;;;;;;;69.30;33.10;;;-4.40;99.90;;;;;;4966937;28;20500;-73
2022/12/17 19:29:43;;;;;;;62.20;29.97;;;-4.40;99.90;;;;;;4967649;28;20463;-73
2022/12/17 19:32:10;;;;;;;78.10;34.00;;;-4.50;99.90;;;;;;4967226;28;20829;-73
2022/12/17 19:34:37;;;;;;;66.47;30.27;;;-4.50;99.90;;;;;;4967737;28;20464;-73
2022/12/17 19:37:05;;;;;;;72.63;33.80;;;-4.60;99.90;;;;;;4966952;28;20463;-73
2022/12/17 19:39:32;;;;;;;77.13;34.27;;;-4.60;99.90;;;;;;4967177;28;20463;-73
2022/12/17 19:41:58;;;;;;;66.17;34.87;;;-4.60;99.90;;;;;;4967220;28;20856;-73
2022/12/17 19:44:25;;;;;;;64.50;35.03;;;-4.60;99.90;;;;;;4967488;28;20482;-74
2022/12/17 19:46:52;;;;;;;93.27;40.20;;;-4.60;99.90;;;;;;4966607;28;20528;-73
2022/12/17 19:49:19;;;;;;;90.23;42.17;;;-4.60;99.90;;;;;;4967637;28;20459;-73
2022/12/17 19:51:46;;;;;;;66.97;36.60;;;-4.60;99.90;;;;;;4967783;28;20571;-72
2022/12/17 19:54:14;;;;;;;89.60;41.93;;;-4.60;99.90;;;;;;4967614;28;20456;-74
2022/12/17 19:56:42;;;;;;;94.50;39.43;;;-4.70;99.90;;;;;;4966479;28;20452;-70
2022/12/17 19:59:11;;;;;;;95.57;40.20;;;-4.70;99.90;;;;;;4967341;28;20468;-72
2022/12/17 20:01:40;;;;;;;90.13;39.17;;;-4.70;99.90;;;;;;4966973;28;21016;-72
2022/12/17 20:04:07;;;;;;;90.83;40.80;;;-4.70;99.90;;;;;;4967391;28;20452;-72
2022/12/17 20:06:35;;;;;;;89.53;39.60;;;-4.70;99.90;;;;;;4969492;28;20842;-75
2022/12/17 20:09:03;;;;;;;92.33;40.60;;;-4.70;99.90;;;;;;4974006;28;20673;-74
2022/12/17 20:11:35;;;;;;;96.73;44.03;;;-4.70;99.90;;;;;;4975343;28;20999;-74
2022/12/17 20:14:04;;;;;;;111.13;44.60;;;-4.80;99.90;;;;;;4975862;28;20479;-75
2022/12/17 20:16:33;;;;;;;125.00;51.37;;;-4.80;99.90;;;;;;4973761;28;20532;-73
2022/12/17 20:19:01;;;;;;;123.33;52.00;;;-4.90;99.90;;;;;;4967654;28;20452;-74
2022/12/17 20:21:29;;;;;;;166.10;58.30;;;-4.90;99.90;;;;;;4966589;28;20487;-74
2022/12/17 20:23:56;;;;;;;156.77;59.70;;;-4.90;99.90;;;;;;4966810;28;20463;-74
2022/12/17 20:26:23;;;;;;;148.17;59.93;;;-4.90;99.90;;;;;;4965508;28;20464;-74
2022/12/17 20:28:51;;;;;;;161.40;59.90;;;-4.90;99.90;;;;;;4965977;28;20467;-73
2022/12/17 20:31:18;;;;;;;141.57;55.43;;;-4.90;99.90;;;;;;4964961;28;20472;-74
2022/12/17 20:33:45;;;;;;;140.07;54.80;;;-4.90;99.90;;;;;;4966436;28;20444;-73
2022/12/17 20:36:14;;;;;;;113.90;48.10;;;-5.00;99.90;;;;;;4965614;28;20467;-73
2022/12/17 20:38:41;;;;;;;102.43;44.80;;;-5.00;99.90;;;;;;4966043;28;20456;-74
2022/12/17 20:41:10;;;;;;;88.63;37.77;;;-5.00;99.90;;;;;;4964335;28;20871;-74
2022/12/17 20:43:37;;;;;;;88.90;35.70;;;-5.00;99.90;;;;;;4966497;28;20836;-74
2022/12/17 20:46:06;;;;;;;83.83;36.00;;;-5.00;99.90;;;;;;4965487;28;20459;-74
2022/12/17 20:48:33;;;;;;;113.90;41.83;;;-5.00;99.90;;;;;;4965834;28;20919;-74
2022/12/17 20:51:03;;;;;;;150.43;54.00;;;-5.00;99.90;;;;;;4965953;28;20472;-74
2022/12/17 20:53:30;;;;;;;146.57;53.57;;;-5.00;99.90;;;;;;4965671;28;20965;-74
2022/12/17 20:56:01;;;;;;;132.77;48.50;;;-5.00;99.90;;;;;;4965622;28;20544;-74
2022/12/17 20:58:29;;;;;;;114.80;46.13;;;-5.00;99.90;;;;;;4965629;28;20455;-74
2022/12/17 21:01:02;;;;;;;96.90;41.03;;;-5.00;99.90;;;;;;4965556;28;20502;-74
2022/12/17 21:03:31;;;;;;;89.77;39.83;;;-5.10;99.90;;;;;;4966182;28;20440;-74
2022/12/17 21:06:05;;;;;;;92.93;42.87;;;-5.10;99.90;;;;;;4965370;28;21372;-74
2022/12/17 21:08:32;;;;;;;107.30;44.77;;;-5.10;99.90;;;;;;4966362;28;20476;-74
2022/12/17 21:10:59;;;;;;;90.47;40.83;;;-5.20;99.90;;;;;;4965911;28;21309;-74
2022/12/17 21:13:28;;;;;;;90.17;41.43;;;-5.30;99.90;;;;;;4965946;28;20460;-74
2022/12/17 21:15:59;;;;;;;85.83;38.80;;;-5.30;99.90;;;;;;4969146;28;20453;-74
2022/12/17 21:18:27;;;;;;;84.57;38.87;;;-5.30;99.90;;;;;;4969066;28;20445;-74
2022/12/17 21:20:58;;;;;;;90.30;41.43;;;-5.40;99.90;;;;;;4969261;28;21269;-74
2022/12/17 21:23:25;;;;;;;93.57;42.50;;;-5.40;99.90;;;;;;4969168;28;20486;-74
2022/12/17 21:26:00;;;;;;;77.00;37.77;;;-5.40;99.90;;;;;;4968960;28;20460;-75
2022/12/17 21:28:27;;;;;;;96.43;38.63;;;-5.40;99.90;;;;;;4969036;28;20495;-74
2022/12/17 21:30:54;;;;;;;89.33;39.77;;;-5.40;99.90;;;;;;4968890;28;20488;-74
2022/12/17 21:33:21;;;;;;;89.40;39.10;;;-5.40;99.90;;;;;;4969241;28;20971;-74
2022/12/17 21:35:47;;;;;;;102.50;43.70;;;-5.50;99.90;;;;;;4969257;28;20556;-74
2022/12/17 21:38:16;;;;;;;92.77;43.03;;;-5.50;99.90;;;;;;4968453;28;20459;-74
2022/12/17 21:40:43;;;;;;;106.40;44.90;;;-5.60;99.90;;;;;;4968811;28;20511;-74
2022/12/17 21:43:10;;;;;;;96.90;41.97;;;-5.50;99.90;;;;;;4968870;28;20471;-73
2022/12/17 21:45:38;;;;;;;99.97;45.03;;;-5.60;99.90;;;;;;4968843;28;20467;-73
2022/12/17 21:48:05;;;;;;;103.80;44.87;;;-5.50;99.90;;;;;;4968029;28;20999;-73
2022/12/17 21:50:32;;;;;;;113.27;49.00;;;-5.60;99.90;;;;;;4968469;28;20978;-74
2022/12/17 21:53:02;;;;;;;118.67;48.20;;;-5.70;99.90;;;;;;4968180;28;20485;-74
2022/12/17 21:55:30;;;;;;;103.30;45.67;;;-5.70;99.90;;;;;;4968984;28;20459;-74
2022/12/17 21:57:59;;;;;;;96.63;44.10;;;-5.80;99.90;;;;;;4968750;28;20467;-74
2022/12/17 22:00:26;;;;;;;102.30;42.73;;;-5.80;99.90;;;;;;4969492;28;20456;-74
2022/12/17 22:02:52;;;;;;;103.40;42.33;;;-5.80;99.90;;;;;;4969314;28;21221;-74
2022/12/17 22:05:19;;;;;;;108.20;43.77;;;-5.80;99.90;;;;;;4969226;28;20463;-74
2022/12/17 22:07:46;;;;;;;88.13;40.30;;;-5.90;99.90;;;;;;4968734;28;20503;-74
2022/12/17 22:10:14;;;;;;;98.77;42.90;;;-5.90;99.90;;;;;;4970028;28;20461;-74
2022/12/17 22:15:38;;;;;;;108.67;41.20;;;-5.90;99.90;;;;;;4928462;29;20446;-74
2022/12/17 22:18:05;;;;;;;101.93;41.60;;;-5.90;99.90;;;;;;4959111;28;20511;-74
2022/12/17 22:20:32;;;;;;;101.33;40.70;;;-5.90;99.90;;;;;;4969371;28;21133;-74
2022/12/17 22:22:59;;;;;;;94.67;40.23;;;-5.90;99.90;;;;;;4969686;28;20860;-74
2022/12/17 22:25:26;;;;;;;110.47;42.80;;;-5.90;99.90;;;;;;4969115;28;20471;-74
2022/12/17 22:27:54;;;;;;;99.50;42.37;;;-5.90;99.90;;;;;;4968799;28;20510;-74
2022/12/17 22:33:06;;;;;;;85.27;39.50;;;-6.00;99.90;;;;;;4969315;28;20484;-74
2022/12/17 22:35:35;;;;;;;92.10;40.83;;;-6.00;99.90;;;;;;4969207;28;20539;-74
2022/12/17 22:38:03;;;;;;;77.27;39.23;;;-6.00;99.90;;;;;;4968352;28;20957;-74
2022/12/17 22:40:34;;;;;;;87.90;38.60;;;-6.00;99.90;;;;;;4969930;28;20453;-74
2022/12/17 22:45:47;;;;;;;95.63;42.07;;;-6.00;99.90;;;;;;4969905;28;20420;-74
2022/12/17 22:48:14;;;;;;;109.77;44.10;;;-6.00;99.90;;;;;;4968107;28;20504;-74
2022/12/17 22:50:42;;;;;;;131.47;49.67;;;-6.00;99.90;;;;;;4969081;28;20473;-74
2022/12/17 22:53:09;;;;;;;106.30;45.03;;;-6.00;99.90;;;;;;4969793;28;20461;-74
2022/12/17 22:55:36;;;;;;;106.30;43.67;;;-6.10;99.90;;;;;;4970287;28;20457;-74
2022/12/17 22:58:05;;;;;;;77.50;37.23;;;-6.10;99.90;;;;;;4969128;28;20877;-73
